Hillcrest Circle, Indiana
Current Conditions -  °F | °C
As of 6:53 PM on Friday 31 Oct 2014 (Local Time) from KBMG Reporting Station
Light Rain Light Rain  
Wind Chill: 28°   Ceiling: 1400
Heat Index: 36°   Visibility: 10mi
Dew Point: 33°   Wind: 13mph
Humidity: 89%   Direction: 320°NW
Pressure: 30.08"   Gusts: 24mph
Location:  38.8737°N, 86.4563°W
Report Text: KBMG 312253Z 32011G21KT 10SM -RA BKN014 BKN020 OVC026 02/01 A3008 RMK AO2 UPB17E24RAB24SNE17 SLP188 P0000 T00220006
Loading
Personal Weather Stations






























Interactive Weather Map
Tropical Storm Tracking
New forecast layout! Learn more

10-Day Weather Forecast

Advertisements
Track Severe Weather on mobile